CDT,Max TemperatureF,Mean TemperatureF,Min TemperatureF,Max Dew PointF,MeanDew PointF,Min DewpointF,Max Humidity, Mean Humidity, Min Humidity, Max Sea Level PressureIn, Mean Sea Level PressureIn, Min Sea Level PressureIn, Max VisibilityMiles, Mean VisibilityMiles, Min VisibilityMiles, Max Wind SpeedMPH, Mean Wind SpeedMPH, Max Gust SpeedMPH,PrecipitationIn, CloudCover, Events, WindDirDegrees
2013-7-1,86,75,63,68,64,61,93,71,48,29.90,29.82,29.76,10,7,0,13,4,18,0.05,2,Fog-Rain-Thunderstorm,268
2013-7-2,87,76,64,66,63,61,93,68,42,30.03,29.97,29.89,10,9,5,14,4,18,0.00,4,,252
2013-7-3,85,77,68,70,67,64,90,71,51,30.11,30.06,30.02,10,10,4,21,5,25,0.04,7,Rain,120
2013-7-4,74,71,68,72,70,66,100,94,87,30.10,30.06,30.02,10,5,0,14,5,16,4.64,8,Fog-Rain,82
2013-7-5,78,75,71,72,71,68,93,85,76,30.14,30.10,30.04,10,8,2,20,8,23,0.63,8,Rain,143
2013-7-6,75,73,71,72,70,69,93,88,82,30.14,30.10,30.05,10,9,3,9,5,12,0.42,8,Rain,134
2013-7-7,85,79,72,73,71,70,100,81,61,30.15,30.10,30.07,10,9,2,13,3,15,0.36,7,Rain,135
2013-7-8,88,80,72,75,72,70,93,79,65,30.20,30.14,30.08,10,10,7,10,4,14,T,4,,143
2013-7-9,92,84,75,75,73,69,100,76,52,30.19,30.12,30.05,10,9,4,21,4,28,0.21,5,Thunderstorm,212
2013-7-10,94,83,71,76,72,68,94,72,49,30.07,30.01,29.92,10,9,1,28,7,33,1.70,5,Rain-Thunderstorm,204
2013-7-11,89,80,71,76,72,69,93,76,59,30.02,29.95,29.87,10,9,1,13,3,17,0.02,5,Rain-Thunderstorm,201
2013-7-12,87,77,67,71,67,59,97,73,48,29.99,29.94,29.90,10,10,6,16,8,22,0.00,1,,11
2013-7-13,87,75,62,71,66,60,93,71,48,30.04,29.98,29.95,10,10,10,14,6,17,0.00,4,,97
2013-7-14,88,81,73,73,70,69,94,75,55,30.14,30.07,30.02,10,10,9,22,10,26,T,4,Rain,112
2013-7-15,89,82,74,72,70,68,87,70,52,30.25,30.19,30.14,10,10,10,18,9,24,T,4,,114
2013-7-16,91,82,73,72,71,70,93,73,52,30.32,30.26,30.22,10,10,10,16,6,22,0.00,2,,120
2013-7-17,97,84,71,74,71,67,94,66,38,30.30,30.23,30.15,10,10,7,15,3,18,0.00,4,Fog,12
2013-7-18,91,83,74,74,71,69,88,69,49,30.18,30.12,30.04,10,10,10,14,4,20,T,2,,134
2013-7-19,93,83,72,72,70,68,93,71,49,30.11,30.04,29.96,10,10,10,12,4,14,0.00,2,,187
2013-7-20,91,82,72,74,71,68,93,71,49,30.02,29.98,29.90,10,10,7,13,5,16,0.00,4,,197
2013-7-21,91,82,72,74,71,67,93,84,74,30.03,29.98,29.93,10,10,0,24,7,30,0.52,5,Rain-Thunderstorm,231
2013-7-22,80,76,71,73,71,68,93,82,71,29.99,29.96,29.90,10,10,6,15,6,21,0.02,7,Rain,234
2013-7-23,80,75,70,74,72,70,93,84,74,29.98,29.93,29.86,10,9,1,20,5,24,0.61,6,Rain-Thunderstorm,191
2013-7-24,88,79,69,73,70,68,100,78,55,29.94,29.89,29.85,10,6,0,8,2,10,0.00,5,Fog,171
2013-7-25,86,77,67,68,64,62,90,69,48,30.03,29.98,29.91,10,10,10,13,6,16,0.00,2,,348
2013-7-26,88,76,63,69,65,61,100,72,43,30.06,30.02,29.96,10,9,2,10,3,14,0.00,3,Fog,311
2013-7-27,87,79,70,70,68,64,93,71,48,29.97,29.94,29.90,10,9,5,14,4,17,0.00,5,,244
2013-7-28,86,78,70,70,65,60,93,72,51,30.08,30.00,29.93,10,10,10,12,5,15,0.00,4,,9
2013-7-29,85,75,65,62,59,53,81,58,34,30.17,30.13,30.07,10,10,10,8,3,10,0.00,3,,38
2013-7-30,90,78,65,75,66,60,93,70,47,30.20,30.14,30.07,10,10,5,14,5,18,0.10,5,Rain,119
2013-7-31,86,79,71,76,72,68,93,82,70,30.11,30.03,29.94,10,8,0,21,6,26,1.16,7,Fog-Rain-Thunderstorm,186